sensor_id;sensor_type;location;lat;lon;timestamp;pressure;altitude;pressure_sealevel;temperature;humidity
12759;BME280;20944;47.048;15.390;2023-05-23T00:01:12;97227.91;;;17.61;93.58
12759;BME280;20944;47.048;15.390;2023-05-23T00:03:42;97212.31;;;17.56;93.21
12759;BME280;20944;47.048;15.390;2023-05-23T00:06:12;97220.81;;;17.61;93.19
12759;BME280;20944;47.048;15.390;2023-05-23T00:08:41;97202.09;;;17.36;93.98
12759;BME280;20944;47.048;15.390;2023-05-23T00:11:09;97215.72;;;17.44;93.60
12759;BME280;20944;47.048;15.390;2023-05-23T00:13:40;97218.66;;;17.25;94.64
12759;BME280;20944;47.048;15.390;2023-05-23T00:16:09;97221.97;;;17.29;94.85
12759;BME280;20944;47.048;15.390;2023-05-23T00:18:37;97223.66;;;17.30;95.29
12759;BME280;20944;47.048;15.390;2023-05-23T00:21:08;97227.06;;;17.32;95.78
12759;BME280;20944;47.048;15.390;2023-05-23T00:23:38;97229.59;;;17.33;95.71
12759;BME280;20944;47.048;15.390;2023-05-23T00:26:08;97215.53;;;17.33;95.84
12759;BME280;20944;47.048;15.390;2023-05-23T00:28:36;97219.13;;;17.32;95.97
12759;BME280;20944;47.048;15.390;2023-05-23T00:31:04;97226.22;;;17.31;95.89
12759;BME280;20944;47.048;15.390;2023-05-23T00:33:33;97223.56;;;17.31;95.65
12759;BME280;20944;47.048;15.390;2023-05-23T00:36:02;97228.66;;;17.34;95.49
12759;BME280;20944;47.048;15.390;2023-05-23T00:38:30;97228.75;;;17.33;94.91
12759;BME280;20944;47.048;15.390;2023-05-23T00:41:00;97227.53;;;17.24;95.17
12759;BME280;20944;47.048;15.390;2023-05-23T00:43:29;97226.50;;;17.26;95.56
12759;BME280;20944;47.048;15.390;2023-05-23T00:45:57;97227.13;;;17.16;95.24
12759;BME280;20944;47.048;15.390;2023-05-23T00:48:26;97220.88;;;17.03;96.71
12759;BME280;20944;47.048;15.390;2023-05-23T00:50:56;97222.69;;;17.02;97.17
12759;BME280;20944;47.048;15.390;2023-05-23T00:53:24;97214.34;;;16.94;98.26
12759;BME280;20944;47.048;15.390;2023-05-23T00:55:53;97222.97;;;16.97;97.80
12759;BME280;20944;47.048;15.390;2023-05-23T00:58:23;97166.38;;;16.70;97.26
12759;BME280;20944;47.048;15.390;2023-05-23T01:00:52;97125.22;;;16.50;97.58
12759;BME280;20944;47.048;15.390;2023-05-23T01:03:21;97210.84;;;16.93;97.31
12759;BME280;20944;47.048;15.390;2023-05-23T01:05:54;97221.34;;;16.95;97.17
12759;BME280;20944;47.048;15.390;2023-05-23T01:08:22;97209.22;;;16.77;98.30
12759;BME280;20944;47.048;15.390;2023-05-23T01:10:51;97216.69;;;16.84;98.05
12759;BME280;20944;47.048;15.390;2023-05-23T01:13:25;97217.94;;;16.79;99.12
12759;BME280;20944;47.048;15.390;2023-05-23T01:15:59;97221.50;;;16.78;99.82
12759;BME280;20944;47.048;15.390;2023-05-23T01:18:33;97219.03;;;16.75;99.72
12759;BME280;20944;47.048;15.390;2023-05-23T01:21:06;97146.88;;;16.27;99.55
12759;BME280;20944;47.048;15.390;2023-05-23T01:24:01;97211.28;;;16.71;99.96
12759;BME280;20944;47.048;15.390;2023-05-23T01:26:32;97211.38;;;16.70;100.00
12759;BME280;20944;47.048;15.390;2023-05-23T01:29:13;97202.06;;;16.79;99.60
12759;BME280;20944;47.048;15.390;2023-05-23T01:31:42;97205.44;;;16.81;98.76
12759;BME280;20944;47.048;15.390;2023-05-23T01:34:12;97201.56;;;16.72;98.35
12759;BME280;20944;47.048;15.390;2023-05-23T01:36:43;97205.81;;;16.59;99.51
12759;BME280;20944;47.048;15.390;2023-05-23T01:39:12;97203.13;;;16.44;100.00
12759;BME280;20944;47.048;15.390;2023-05-23T01:41:40;97213.25;;;16.52;100.00
12759;BME280;20944;47.048;15.390;2023-05-23T01:44:10;97204.84;;;16.45;100.00
12759;BME280;20944;47.048;15.390;2023-05-23T01:46:38;97204.94;;;16.44;100.00
12759;BME280;20944;47.048;15.390;2023-05-23T01:49:10;97195.28;;;16.43;100.00
12759;BME280;20944;47.048;15.390;2023-05-23T01:51:39;97197.69;;;16.48;100.00
12759;BME280;20944;47.048;15.390;2023-05-23T01:54:08;97198.69;;;16.45;100.00
12759;BME280;20944;47.048;15.390;2023-05-23T01:56:36;97176.94;;;16.40;100.00
12759;BME280;20944;47.048;15.390;2023-05-23T01:59:05;97200.69;;;16.41;99.92
12759;BME280;20944;47.048;15.390;2023-05-23T02:01:35;97195.66;;;16.37;99.23
12759;BME280;20944;47.048;15.390;2023-05-23T02:04:04;97195.06;;;16.32;100.00
12759;BME280;20944;47.048;15.390;2023-05-23T02:06:32;97192.06;;;16.38;100.00
12759;BME280;20944;47.048;15.390;2023-05-23T02:09:00;97152.72;;;16.02;100.00
12759;BME280;20944;47.048;15.390;2023-05-23T02:11:29;97186.53;;;16.27;100.00
12759;BME280;20944;47.048;15.390;2023-05-23T02:13:58;97192.28;;;16.19;100.00
12759;BME280;20944;47.048;15.390;2023-05-23T02:16:26;97183.25;;;16.07;100.00
12759;BME280;20944;47.048;15.390;2023-05-23T02:18:56;97192.28;;;16.19;100.00
12759;BME280;20944;47.048;15.390;2023-05-23T02:21:25;97189.13;;;16.12;100.00
12759;BME280;20944;47.048;15.390;2023-05-23T02:23:53;97136.91;;;15.70;100.00
12759;BME280;20944;47.048;15.390;2023-05-23T02:26:21;97187.59;;;16.08;100.00
12759;BME280;20944;47.048;15.390;2023-05-23T02:28:50;97184.28;;;16.05;100.00
12759;BME280;20944;47.048;15.390;2023-05-23T02:31:18;97185.13;;;16.05;100.00
12759;BME280;20944;47.048;15.390;2023-05-23T02:33:47;97187.69;;;16.07;100.00
12759;BME280;20944;47.048;15.390;2023-05-23T02:36:17;97181.38;;;16.09;100.00
12759;BME280;20944;47.048;15.390;2023-05-23T02:38:45;97181.63;;;16.05;100.00
12759;BME280;20944;47.048;15.390;2023-05-23T02:41:13;97175.91;;;16.12;100.00
12759;BME280;20944;47.048;15.390;2023-05-23T02:43:44;97146.09;;;15.95;100.00
12759;BME280;20944;47.048;15.390;2023-05-23T02:46:13;97165.94;;;16.02;100.00
12759;BME280;20944;47.048;15.390;2023-05-23T02:48:41;97159.16;;;15.98;100.00
12759;BME280;20944;47.048;15.390;2023-05-23T02:51:09;97146.28;;;15.91;100.00
12759;BME280;20944;47.048;15.390;2023-05-23T02:53:40;97162.78;;;15.95;100.00
12759;BME280;20944;47.048;15.390;2023-05-23T02:56:08;97151.63;;;15.90;100.00
12759;BME280;20944;47.048;15.390;2023-05-23T02:58:37;97143.53;;;15.93;100.00
12759;BME280;20944;47.048;15.390;2023-05-23T03:01:05;97165.38;;;15.97;100.00
12759;BME280;20944;47.048;15.390;2023-05-23T03:03:35;97101.13;;;15.64;100.00
12759;BME280;20944;47.048;15.390;2023-05-23T03:06:03;97157.06;;;16.03;100.00
12759;BME280;20944;47.048;15.390;2023-05-23T03:08:32;97069.09;;;15.39;100.00
12759;BME280;20944;47.048;15.390;2023-05-23T03:11:01;97159.16;;;15.98;100.00
12759;BME280;20944;47.048;15.390;2023-05-23T03:13:30;97142.69;;;15.77;100.00
12759;BME280;20944;47.048;15.390;2023-05-23T03:15:58;97094.91;;;15.50;100.00
12759;BME280;20944;47.048;15.390;2023-05-23T03:18:27;97158.31;;;15.66;100.00
12759;BME280;20944;47.048;15.390;2023-05-23T03:20:55;97153.34;;;15.59;100.00
12759;BME280;20944;47.048;15.390;2023-05-23T03:23:23;97161.81;;;15.66;100.00
12759;BME280;20944;47.048;15.390;2023-05-23T03:25:52;97161.88;;;15.64;100.00
12759;BME280;20944;47.048;15.390;2023-05-23T03:28:22;97158.13;;;15.69;100.00
12759;BME280;20944;47.048;15.390;2023-05-23T03:30:50;97152.75;;;15.54;100.00
12759;BME280;20944;47.048;15.390;2023-05-23T03:33:18;97167.31;;;15.61;100.00
12759;BME280;20944;47.048;15.390;2023-05-23T03:35:47;97164.53;;;15.64;100.00
12759;BME280;20944;47.048;15.390;2023-05-23T03:38:15;97170.69;;;15.65;100.00
12759;BME280;20944;47.048;15.390;2023-05-23T03:40:43;97165.03;;;15.71;100.00
12759;BME280;20944;47.048;15.390;2023-05-23T03:43:12;97167.66;;;15.71;100.00
12759;BME280;20944;47.048;15.390;2023-05-23T03:45:42;97163.25;;;15.72;100.00
12759;BME280;20944;47.048;15.390;2023-05-23T03:48:11;97169.97;;;15.77;100.00
12759;BME280;20944;47.048;15.390;2023-05-23T03:50:39;97169.13;;;15.77;100.00
12759;BME280;20944;47.048;15.390;2023-05-23T03:53:07;97176.28;;;15.75;100.00
12759;BME280;20944;47.048;15.390;2023-05-23T03:55:36;97171.09;;;15.73;100.00
12759;BME280;20944;47.048;15.390;2023-05-23T03:58:04;97177.84;;;15.79;100.00
12759;BME280;20944;47.048;15.390;2023-05-23T04:00:33;97172.28;;;15.83;100.00
12759;BME280;20944;47.048;15.390;2023-05-23T04:03:03;97179.09;;;15.87;100.00
12759;BME280;20944;47.048;15.390;2023-05-23T04:05:31;97179.66;;;16.08;100.00
12759;BME280;20944;47.048;15.390;2023-05-23T04:07:59;97182.16;;;16.11;100.00
12759;BME280;20944;47.048;15.390;2023-05-23T04:10:28;97182.53;;;16.19;100.00
12759;BME280;20944;47.048;15.390;2023-05-23T04:12:57;97178.00;;;16.22;100.00
12759;BME280;20944;47.048;15.390;2023-05-23T04:15:25;97175.69;;;16.31;100.00
12759;BME280;20944;47.048;15.390;2023-05-23T04:17:53;97183.09;;;16.40;100.00
12759;BME280;20944;47.048;15.390;2023-05-23T04:20:23;97175.88;;;16.58;100.00
12759;BME280;20944;47.048;15.390;2023-05-23T04:22:52;97168.50;;;16.63;100.00
12759;BME280;20944;47.048;15.390;2023-05-23T04:25:20;97176.91;;;16.86;100.00
12759;BME280;20944;47.048;15.390;2023-05-23T04:27:48;97178.72;;;16.99;100.00
12759;BME280;20944;47.048;15.390;2023-05-23T04:30:16;97183.06;;;17.15;100.00
12759;BME280;20944;47.048;15.390;2023-05-23T04:32:45;97167.84;;;17.18;99.43
12759;BME280;20944;47.048;15.390;2023-05-23T04:35:14;97124.16;;;16.97;99.89
12759;BME280;20944;47.048;15.390;2023-05-23T04:37:43;97178.25;;;17.36;99.07
12759;BME280;20944;47.048;15.390;2023-05-23T04:40:12;97210.31;;;17.45;98.36
12759;BME280;20944;47.048;15.390;2023-05-23T04:42:41;97177.00;;;17.56;97.44
12759;BME280;20944;47.048;15.390;2023-05-23T04:45:10;97168.47;;;17.65;97.47
12759;BME280;20944;47.048;15.390;2023-05-23T04:47:38;97175.66;;;17.77;97.09
12759;BME280;20944;47.048;15.390;2023-05-23T04:50:08;97168.53;;;17.92;95.95
12759;BME280;20944;47.048;15.390;2023-05-23T04:52:36;97167.09;;;18.00;95.65
12759;BME280;20944;47.048;15.390;2023-05-23T04:55:07;97151.63;;;18.07;94.92
12759;BME280;20944;47.048;15.390;2023-05-23T04:57:35;97169.59;;;18.29;92.98
12759;BME280;20944;47.048;15.390;2023-05-23T05:00:05;97172.41;;;18.40;92.02
12759;BME280;20944;47.048;15.390;2023-05-23T05:02:38;97180.63;;;18.50;91.41
12759;BME280;20944;47.048;15.390;2023-05-23T05:05:07;97177.16;;;18.62;91.15
12759;BME280;20944;47.048;15.390;2023-05-23T05:07:35;97173.16;;;18.82;89.49
12759;BME280;20944;47.048;15.390;2023-05-23T05:10:05;97167.00;;;18.94;89.32
12759;BME280;20944;47.048;15.390;2023-05-23T05:12:35;97159.78;;;18.96;91.50
12759;BME280;20944;47.048;15.390;2023-05-23T05:15:04;97165.22;;;18.95;93.11
12759;BME280;20944;47.048;15.390;2023-05-23T05:17:32;97165.81;;;18.85;89.97
12759;BME280;20944;47.048;15.390;2023-05-23T05:20:03;97165.94;;;18.84;91.54
12759;BME280;20944;47.048;15.390;2023-05-23T05:22:34;97159.66;;;18.85;92.81
12759;BME280;20944;47.048;15.390;2023-05-23T05:25:08;97112.50;;;18.63;92.93
12759;BME280;20944;47.048;15.390;2023-05-23T05:27:38;97117.00;;;18.75;93.33
12759;BME280;20944;47.048;15.390;2023-05-23T05:30:08;97155.75;;;19.03;91.37
12759;BME280;20944;47.048;15.390;2023-05-23T05:32:36;97144.81;;;19.08;91.56
12759;BME280;20944;47.048;15.390;2023-05-23T05:35:06;97148.53;;;19.18;90.52
12759;BME280;20944;47.048;15.390;2023-05-23T05:37:34;97146.38;;;19.23;89.55
12759;BME280;20944;47.048;15.390;2023-05-23T05:40:03;97143.94;;;19.20;89.43
12759;BME280;20944;47.048;15.390;2023-05-23T05:42:36;97150.28;;;19.56;89.01
12759;BME280;20944;47.048;15.390;2023-05-23T05:45:05;97144.72;;;19.72;88.15
12759;BME280;20944;47.048;15.390;2023-05-23T05:47:33;97146.97;;;20.02;84.50
12759;BME280;20944;47.048;15.390;2023-05-23T05:50:03;97154.88;;;20.14;81.65
12759;BME280;20944;47.048;15.390;2023-05-23T05:52:31;97147.53;;;20.18;81.60
12759;BME280;20944;47.048;15.390;2023-05-23T05:55:00;97136.91;;;20.18;82.07
12759;BME280;20944;47.048;15.390;2023-05-23T05:57:28;97148.66;;;20.27;80.91
12759;BME280;20944;47.048;15.390;2023-05-23T05:59:58;97139.97;;;20.36;81.37
12759;BME280;20944;47.048;15.390;2023-05-23T06:02:26;97129.28;;;20.48;79.71
12759;BME280;20944;47.048;15.390;2023-05-23T06:04:55;97137.44;;;20.58;78.35
12759;BME280;20944;47.048;15.390;2023-05-23T06:07:23;97143.47;;;20.60;79.25
12759;BME280;20944;47.048;15.390;2023-05-23T06:09:51;97133.94;;;20.69;80.20
12759;BME280;20944;47.048;15.390;2023-05-23T06:12:19;97130.72;;;20.88;79.58
12759;BME280;20944;47.048;15.390;2023-05-23T06:14:48;97126.25;;;21.11;79.09
12759;BME280;20944;47.048;15.390;2023-05-23T06:17:18;97121.19;;;21.30;77.64
12759;BME280;20944;47.048;15.390;2023-05-23T06:19:46;97130.75;;;21.55;77.22
12759;BME280;20944;47.048;15.390;2023-05-23T06:22:14;97127.59;;;21.72;75.77
12759;BME280;20944;47.048;15.390;2023-05-23T06:24:42;97123.44;;;21.79;74.12
12759;BME280;20944;47.048;15.390;2023-05-23T06:27:11;97126.84;;;21.81;73.88
12759;BME280;20944;47.048;15.390;2023-05-23T06:29:39;97127.91;;;21.90;73.56
12759;BME280;20944;47.048;15.390;2023-05-23T06:32:07;97131.03;;;22.06;72.83
12759;BME280;20944;47.048;15.390;2023-05-23T06:34:37;97138.50;;;22.24;71.01
12759;BME280;20944;47.048;15.390;2023-05-23T06:37:05;97139.91;;;22.39;71.79
12759;BME280;20944;47.048;15.390;2023-05-23T06:39:33;97122.03;;;22.51;71.24
12759;BME280;20944;47.048;15.390;2023-05-23T06:42:02;97122.84;;;22.72;70.09
12759;BME280;20944;47.048;15.390;2023-05-23T06:44:30;97125.34;;;22.85;69.25
12759;BME280;20944;47.048;15.390;2023-05-23T06:46:58;97124.44;;;22.96;67.84
12759;BME280;20944;47.048;15.390;2023-05-23T06:49:26;97125.34;;;23.06;68.57
12759;BME280;20944;47.048;15.390;2023-05-23T06:51:56;97126.63;;;23.32;69.21
12759;BME280;20944;47.048;15.390;2023-05-23T06:54:24;97093.78;;;23.30;69.65
12759;BME280;20944;47.048;15.390;2023-05-23T06:56:53;97116.53;;;23.55;69.55
12759;BME280;20944;47.048;15.390;2023-05-23T06:59:21;97109.91;;;23.50;66.50
12759;BME280;20944;47.048;15.390;2023-05-23T07:01:49;97118.34;;;23.45;67.08
12759;BME280;20944;47.048;15.390;2023-05-23T07:04:17;97107.31;;;23.29;67.50
12759;BME280;20944;47.048;15.390;2023-05-23T07:06:46;97112.50;;;23.30;67.77
12759;BME280;20944;47.048;15.390;2023-05-23T07:09:16;97116.47;;;23.36;66.70
12759;BME280;20944;47.048;15.390;2023-05-23T07:11:44;97118.91;;;23.39;65.05
12759;BME280;20944;47.048;15.390;2023-05-23T07:14:12;97105.84;;;23.55;64.84
12759;BME280;20944;47.048;15.390;2023-05-23T07:16:40;97107.19;;;23.71;65.29
12759;BME280;20944;47.048;15.390;2023-05-23T07:19:09;97100.75;;;23.83;65.89
12759;BME280;20944;47.048;15.390;2023-05-23T07:21:37;97094.81;;;23.79;63.92
12759;BME280;20944;47.048;15.390;2023-05-23T07:24:05;97091.22;;;23.59;65.18
12759;BME280;20944;47.048;15.390;2023-05-23T07:26:35;97088.09;;;23.45;67.67
12759;BME280;20944;47.048;15.390;2023-05-23T07:29:03;97097.81;;;23.55;67.67
12759;BME280;20944;47.048;15.390;2023-05-23T07:31:31;97095.06;;;23.66;67.67
12759;BME280;20944;47.048;15.390;2023-05-23T07:34:00;97082.72;;;23.85;65.09
12759;BME280;20944;47.048;15.390;2023-05-23T07:36:28;97097.09;;;23.93;65.52
12759;BME280;20944;47.048;15.390;2023-05-23T07:39:00;97089.63;;;23.97;62.25
12759;BME280;20944;47.048;15.390;2023-05-23T07:41:29;97090.06;;;24.02;65.00
12759;BME280;20944;47.048;15.390;2023-05-23T07:43:58;97087.38;;;24.12;67.26
12759;BME280;20944;47.048;15.390;2023-05-23T07:46:26;97077.50;;;24.32;67.22
12759;BME280;20944;47.048;15.390;2023-05-23T07:48:55;97025.81;;;24.02;64.08
12759;BME280;20944;47.048;15.390;2023-05-23T07:51:23;97081.38;;;24.39;67.02
12759;BME280;20944;47.048;15.390;2023-05-23T07:53:51;97078.53;;;24.50;66.65
12759;BME280;20944;47.048;15.390;2023-05-23T07:56:19;97068.22;;;24.65;65.86
12759;BME280;20944;47.048;15.390;2023-05-23T07:58:47;97080.59;;;24.85;64.67
12759;BME280;20944;47.048;15.390;2023-05-23T08:01:17;97073.94;;;24.89;65.74
12759;BME280;20944;47.048;15.390;2023-05-23T08:03:45;97072.38;;;24.96;64.81
12759;BME280;20944;47.048;15.390;2023-05-23T08:06:14;97072.19;;;25.08;65.11
12759;BME280;20944;47.048;15.390;2023-05-23T08:08:42;97066.84;;;25.08;63.72
12759;BME280;20944;47.048;15.390;2023-05-23T08:11:10;97070.81;;;24.94;64.20
12759;BME280;20944;47.048;15.390;2023-05-23T08:13:38;97067.44;;;24.92;64.74
12759;BME280;20944;47.048;15.390;2023-05-23T08:16:07;97063.50;;;24.96;64.85
12759;BME280;20944;47.048;15.390;2023-05-23T08:18:37;97052.59;;;24.97;61.35
12759;BME280;20944;47.048;15.390;2023-05-23T08:21:05;97064.28;;;25.16;62.87
12759;BME280;20944;47.048;15.390;2023-05-23T08:23:33;97048.00;;;25.27;63.50
12759;BME280;20944;47.048;15.390;2023-05-23T08:26:01;97066.97;;;25.43;60.38
12759;BME280;20944;47.048;15.390;2023-05-23T08:28:30;97065.22;;;25.24;61.41
12759;BME280;20944;47.048;15.390;2023-05-23T08:31:00;97052.84;;;25.14;63.93
12759;BME280;20944;47.048;15.390;2023-05-23T08:33:28;97054.31;;;25.08;64.44
12759;BME280;20944;47.048;15.390;2023-05-23T08:35:58;97059.72;;;25.26;65.00
12759;BME280;20944;47.048;15.390;2023-05-23T08:38:26;97059.75;;;25.44;63.25
12759;BME280;20944;47.048;15.390;2023-05-23T08:40:55;97041.06;;;25.34;61.91
12759;BME280;20944;47.048;15.390;2023-05-23T08:43:24;97053.66;;;25.51;64.42
12759;BME280;20944;47.048;15.390;2023-05-23T08:45:53;96968.91;;;25.03;60.24
12759;BME280;20944;47.048;15.390;2023-05-23T08:48:21;97059.56;;;25.55;60.10
12759;BME280;20944;47.048;15.390;2023-05-23T08:50:52;97041.81;;;25.44;61.21
12759;BME280;20944;47.048;15.390;2023-05-23T08:53:22;97054.53;;;25.52;62.22
12759;BME280;20944;47.048;15.390;2023-05-23T08:55:54;97051.13;;;25.50;61.26
12759;BME280;20944;47.048;15.390;2023-05-23T08:58:25;97052.91;;;25.59;64.59
12759;BME280;20944;47.048;15.390;2023-05-23T09:00:55;97056.81;;;25.74;63.75
12759;BME280;20944;47.048;15.390;2023-05-23T09:03:25;97050.16;;;25.96;63.61
12759;BME280;20944;47.048;15.390;2023-05-23T09:05:54;97058.06;;;26.16;63.29
12759;BME280;20944;47.048;15.390;2023-05-23T09:08:23;97029.19;;;26.18;62.30
12759;BME280;20944;47.048;15.390;2023-05-23T09:10:52;97038.72;;;26.48;60.34
12759;BME280;20944;47.048;15.390;2023-05-23T09:13:21;97032.44;;;26.65;61.40
12759;BME280;20944;47.048;15.390;2023-05-23T09:15:57;97027.84;;;26.83;60.01
12759;BME280;20944;47.048;15.390;2023-05-23T09:18:33;97023.03;;;26.95;58.98
12759;BME280;20944;47.048;15.390;2023-05-23T09:21:01;97026.03;;;27.10;56.19
12759;BME280;20944;47.048;15.390;2023-05-23T09:23:32;97013.91;;;27.14;56.45
12759;BME280;20944;47.048;15.390;2023-05-23T09:26:02;97015.59;;;27.15;56.88
12759;BME280;20944;47.048;15.390;2023-05-23T09:28:31;97017.16;;;27.18;55.34
12759;BME280;20944;47.048;15.390;2023-05-23T09:31:00;96947.97;;;26.76;56.51
12759;BME280;20944;47.048;15.390;2023-05-23T09:33:35;97012.78;;;27.17;57.76
12759;BME280;20944;47.048;15.390;2023-05-23T09:36:04;97004.00;;;27.14;56.58
12759;BME280;20944;47.048;15.390;2023-05-23T09:38:38;97002.34;;;27.22;52.44
12759;BME280;20944;47.048;15.390;2023-05-23T09:41:07;97004.06;;;27.31;55.45
12759;BME280;20944;47.048;15.390;2023-05-23T09:43:38;97003.91;;;27.32;55.60
12759;BME280;20944;47.048;15.390;2023-05-23T09:46:08;96995.72;;;27.42;54.05
12759;BME280;20944;47.048;15.390;2023-05-23T09:48:37;96997.94;;;27.63;55.05
12759;BME280;20944;47.048;15.390;2023-05-23T09:51:07;96960.91;;;27.57;52.11
12759;BME280;20944;47.048;15.390;2023-05-23T09:53:36;96910.78;;;27.48;50.21
12759;BME280;20944;47.048;15.390;2023-05-23T09:56:07;96994.31;;;27.88;49.64
12759;BME280;20944;47.048;15.390;2023-05-23T09:58:37;96975.22;;;27.65;48.16
12759;BME280;20944;47.048;15.390;2023-05-23T10:01:08;96976.22;;;27.56;52.56
12759;BME280;20944;47.048;15.390;2023-05-23T10:03:44;96979.44;;;27.60;53.72
12759;BME280;20944;47.048;15.390;2023-05-23T10:06:16;96965.25;;;27.41;52.45
12759;BME280;20944;47.048;15.390;2023-05-23T10:08:51;96982.28;;;27.58;52.97
12759;BME280;20944;47.048;15.390;2023-05-23T10:14:51;96967.88;;;27.84;50.33
12759;BME280;20944;47.048;15.390;2023-05-23T10:17:28;96976.66;;;28.10;50.17
12759;BME280;20944;47.048;15.390;2023-05-23T10:20:02;96971.44;;;28.25;47.37
12759;BME280;20944;47.048;15.390;2023-05-23T10:22:35;96974.47;;;27.98;49.59
12759;BME280;20944;47.048;15.390;2023-05-23T10:25:04;96968.63;;;27.52;48.54
12759;BME280;20944;47.048;15.390;2023-05-23T10:27:34;96958.88;;;27.51;52.63
12759;BME280;20944;47.048;15.390;2023-05-23T10:30:03;96906.72;;;27.43;52.60
12759;BME280;20944;47.048;15.390;2023-05-23T10:32:32;96949.53;;;27.87;48.35
12759;BME280;20944;47.048;15.390;2023-05-23T10:35:08;96901.41;;;27.76;50.57
12759;BME280;20944;47.048;15.390;2023-05-23T10:37:44;96938.09;;;28.10;48.44
12759;BME280;20944;47.048;15.390;2023-05-23T10:40:21;96935.88;;;28.21;51.88
12759;BME280;20944;47.048;15.390;2023-05-23T10:42:58;96930.00;;;28.26;49.27
12759;BME280;20944;47.048;15.390;2023-05-23T10:45:28;96931.03;;;28.33;49.27
12759;BME280;20944;47.048;15.390;2023-05-23T10:47:59;96917.84;;;28.22;49.76
12759;BME280;20944;47.048;15.390;2023-05-23T10:50:31;96911.00;;;28.11;49.52
12759;BME280;20944;47.048;15.390;2023-05-23T10:53:00;96913.03;;;27.93;47.96
12759;BME280;20944;47.048;15.390;2023-05-23T10:55:31;96922.28;;;27.74;47.74
12759;BME280;20944;47.048;15.390;2023-05-23T10:58:11;96917.50;;;27.43;46.52
12759;BME280;20944;47.048;15.390;2023-05-23T11:00:49;96919.56;;;27.07;49.87
12759;BME280;20944;47.048;15.390;2023-05-23T11:03:18;96928.78;;;26.71;47.42
12759;BME280;20944;47.048;15.390;2023-05-23T11:05:46;96935.63;;;26.57;48.14
12759;BME280;20944;47.048;15.390;2023-05-23T11:08:15;96936.06;;;26.44;48.69
12759;BME280;20944;47.048;15.390;2023-05-23T11:10:54;96935.22;;;26.44;49.53
12759;BME280;20944;47.048;15.390;2023-05-23T11:13:24;96929.75;;;26.09;45.61
12759;BME280;20944;47.048;15.390;2023-05-23T11:15:52;96922.81;;;25.81;48.23
12759;BME280;20944;47.048;15.390;2023-05-23T11:18:26;96933.97;;;25.23;52.25
12759;BME280;20944;47.048;15.390;2023-05-23T11:20:54;96940.63;;;24.82;53.58
12759;BME280;20944;47.048;15.390;2023-05-23T11:23:38;96929.72;;;24.65;53.46
12759;BME280;20944;47.048;15.390;2023-05-23T11:26:28;96928.56;;;24.68;51.33
12759;BME280;20944;47.048;15.390;2023-05-23T11:28:58;96918.91;;;24.85;51.52
12759;BME280;20944;47.048;15.390;2023-05-23T11:31:29;96923.47;;;25.02;51.64
12759;BME280;20944;47.048;15.390;2023-05-23T11:33:57;96912.56;;;25.13;49.43
12759;BME280;20944;47.048;15.390;2023-05-23T11:36:26;96913.34;;;25.23;52.14
12759;BME280;20944;47.048;15.390;2023-05-23T11:38:55;96900.38;;;25.19;52.39
12759;BME280;20944;47.048;15.390;2023-05-23T11:41:23;96910.44;;;25.35;50.97
12759;BME280;20944;47.048;15.390;2023-05-23T11:43:52;96911.97;;;25.55;50.39
12759;BME280;20944;47.048;15.390;2023-05-23T11:46:22;96934.75;;;25.69;52.34
12759;BME280;20944;47.048;15.390;2023-05-23T11:48:50;96967.28;;;25.66;50.71
12759;BME280;20944;47.048;15.390;2023-05-23T11:51:20;97026.44;;;25.64;51.83
12759;BME280;20944;47.048;15.390;2023-05-23T11:53:49;97080.19;;;25.54;51.92
12759;BME280;20944;47.048;15.390;2023-05-23T11:56:17;97084.69;;;24.80;53.14
12759;BME280;20944;47.048;15.390;2023-05-23T11:58:45;97109.91;;;24.00;54.16
12759;BME280;20944;47.048;15.390;2023-05-23T12:01:13;97122.53;;;22.66;57.70
12759;BME280;20944;47.048;15.390;2023-05-23T12:03:48;97133.94;;;22.03;59.44
12759;BME280;20944;47.048;15.390;2023-05-23T12:06:17;97168.69;;;21.47;60.63
12759;BME280;20944;47.048;15.390;2023-05-23T12:08:46;97194.19;;;20.94;62.35
12759;BME280;20944;47.048;15.390;2023-05-23T12:11:14;97216.13;;;20.62;67.41
12759;BME280;20944;47.048;15.390;2023-05-23T12:13:44;97244.84;;;19.97;78.67
12759;BME280;20944;47.048;15.390;2023-05-23T12:16:13;97251.69;;;18.99;86.34
12759;BME280;20944;47.048;15.390;2023-05-23T12:18:41;97231.44;;;17.75;95.05
12759;BME280;20944;47.048;15.390;2023-05-23T12:21:12;97247.78;;;17.39;100.00
12759;BME280;20944;47.048;15.390;2023-05-23T12:23:40;97239.38;;;17.61;100.00
12759;BME280;20944;47.048;15.390;2023-05-23T12:26:09;97238.53;;;17.61;100.00
12759;BME280;20944;47.048;15.390;2023-05-23T12:28:38;97248.53;;;17.27;100.00
12759;BME280;20944;47.048;15.390;2023-05-23T12:31:10;97232.44;;;17.16;100.00
12759;BME280;20944;47.048;15.390;2023-05-23T12:33:39;97245.69;;;17.30;100.00
12759;BME280;20944;47.048;15.390;2023-05-23T12:36:09;97250.41;;;17.39;100.00
12759;BME280;20944;47.048;15.390;2023-05-23T12:38:41;97256.78;;;17.37;100.00
12759;BME280;20944;47.048;15.390;2023-05-23T12:41:14;97242.16;;;17.15;100.00
12759;BME280;20944;47.048;15.390;2023-05-23T12:43:48;97252.59;;;17.18;100.00
12759;BME280;20944;47.048;15.390;2023-05-23T12:46:17;97250.97;;;17.16;100.00
12759;BME280;20944;47.048;15.390;2023-05-23T12:48:46;97227.91;;;17.04;100.00
12759;BME280;20944;47.048;15.390;2023-05-23T12:51:14;97234.81;;;17.20;100.00
12759;BME280;20944;47.048;15.390;2023-05-23T12:53:44;97229.72;;;17.32;100.00
12759;BME280;20944;47.048;15.390;2023-05-23T12:56:12;97211.66;;;17.38;100.00
12759;BME280;20944;47.048;15.390;2023-05-23T12:58:40;97226.41;;;17.57;100.00
12759;BME280;20944;47.048;15.390;2023-05-23T13:01:09;97243.63;;;17.78;100.00
12759;BME280;20944;47.048;15.390;2023-05-23T13:03:38;97243.16;;;17.86;100.00